Aérodrome :
LOGIN :

S'inscrire | Disclaimer

   EN    FR    IT 

 










Légende :    VFR   VFR Marginal   IFR   IFR Intensif   IFR Très Intensif
Visi : 
Plafond : 
>= 8 km
>= 3000ft
5 à 8 km
1000 à 3000 ft
1500m à 5 km
500 à 1000 ft
800 à 1500m
200 à 500 ft
< 800m
< 200 ft
Symboles :   Orages  Brouillard  Fortes neiges  Fortes précipitations  Vent > 20 kt
SIGMETs :   Divers  Orages  Givrage  Turbulence  Onde Orograph.  Cendres Volcan.







- Altitude de l'aérodrome : 978 ft
- Code IATA : LNZ


LOWL - Linz

DERNIER METAR :
  • 251920Z AUTO 29005KT 9999 BKN080 19/08 Q1012 NOSIG

METARs EXPIRÉS :
  • 251820Z AUTO 27010KT 9999 OVC080 21/06 Q1011 NOSIG
  • 251750Z AUTO 27013KT 9999 BKN080 22/06 Q1010 NOSIG
  • 251720Z AUTO 28015KT 9999 FEW070 BKN080 23/06 Q1010 NOSIG
  • 251650Z AUTO 29011KT 9999 FEW070 24/08 Q1010 NOSIG

TAF TAF LOWL
Valide du 25 à 18h jusqu'au 26 à 18h UTC


251715Z 2518/2618 26010KT 9999 FEW050 SCT120 TX22/2518Z TN11/2618Z
PROB30
TEMPO 2520/2524 30015G25KT FEW060CB BKN100
BECMG 2523/2602 26006KT -RA FEW030 BKN050
TEMPO 2604/2608 30015G25KT 8000 SHRA SCT020TCU BKN030
BECMG 2608/2610 26012KT NSW
TEMPO 2610/2617 29015G25KT -SHRA
Pas de NOTAMs connus pour ce terrain.



MET'MAP, la Météo Aéronautique d'un coup d'oeil ! - Copyright ORBIFLY Décembre 2007 - Disclaimer

ORBIFLY MET'MAP TEAM :

Programmation & Développement : Alexandra Zaïnal
Conception & Développement : Baudouin d'Aumeries
Co-Programmation & Développement : Marc-Olivier Méhu
Soutien technique & logistique : Manuel Goepfert

Contact : metmap@orbifly.com




SOURCES & CREDITS :

   NOAA